createdAt,value
2023-04-29T01:02:22.300Z,5.93
2023-04-29T01:17:28.631Z,6.07
2023-04-29T01:32:56.667Z,6.57
2023-04-29T01:48:00.253Z,6.10
2023-04-29T02:03:02.246Z,6.67
2023-04-29T02:18:04.079Z,6.50
2023-04-29T02:33:08.244Z,4.70
2023-04-29T02:48:10.261Z,5.40
2023-04-29T03:03:11.992Z,5.73
2023-04-29T03:18:13.798Z,5.03
2023-04-29T03:33:15.481Z,5.67
2023-04-29T03:48:17.202Z,5.57
2023-04-29T04:03:19.016Z,5.53
2023-04-29T04:18:21.079Z,5.87
2023-04-29T04:33:22.806Z,5.90
2023-04-29T04:48:24.471Z,5.97
2023-04-29T05:03:26.300Z,6.20
2023-04-29T05:18:28.215Z,6.37
2023-04-29T05:33:29.886Z,7.20
2023-04-29T05:48:31.544Z,6.73
2023-04-29T06:03:33.428Z,7.77
2023-04-29T06:18:35.236Z,8.33
2023-04-29T06:33:37.510Z,10.27
2023-04-29T06:48:39.307Z,9.43
2023-04-29T07:03:41.137Z,10.20
2023-04-29T07:18:42.873Z,11.67
2023-04-29T07:33:46.608Z,12.87
2023-04-29T07:48:48.430Z,13.40
2023-04-29T08:03:50.444Z,12.30
2023-04-29T08:18:52.200Z,14.07
2023-04-29T08:33:54.032Z,12.50
2023-04-29T08:48:57.949Z,15.90
2023-04-29T09:04:10.221Z,15.00
2023-04-29T09:19:12.013Z,14.80
2023-04-29T09:34:15.101Z,16.53
2023-04-29T09:49:38.904Z,17.80
2023-04-29T10:04:42.639Z,17.27
2023-04-29T10:19:58.690Z,18.13
2023-04-29T10:35:02.390Z,19.10
2023-04-29T10:50:05.031Z,21.23
2023-04-29T11:05:09.275Z,21.07
2023-04-29T11:20:14.458Z,19.37
2023-04-29T11:35:18.223Z,18.37
2023-04-29T11:50:20.788Z,19.83
2023-04-29T12:05:26.483Z,22.30
2023-04-29T12:20:29.304Z,15.53
2023-04-29T12:35:31.818Z,19.00
2023-04-29T12:50:38.618Z,19.93
2023-04-29T13:05:41.110Z,19.80
2023-04-29T13:20:42.870Z,20.73
2023-04-29T13:35:44.866Z,21.53
2023-04-29T14:05:51.524Z,20.47
2023-04-29T14:20:54.367Z,20.03
2023-04-29T14:35:56.023Z,19.83
2023-04-29T14:50:57.944Z,20.50
2023-04-29T15:06:03.683Z,21.27
2023-04-29T15:21:05.575Z,20.07
2023-04-29T15:36:07.906Z,20.83
2023-04-29T15:51:10.156Z,18.03
2023-04-29T16:06:12.102Z,20.10
2023-04-29T16:21:13.944Z,23.33
2023-04-29T16:36:15.635Z,17.43
2023-04-29T16:51:17.700Z,17.80
2023-04-29T17:06:19.663Z,22.27
2023-04-29T17:21:24.891Z,21.83
2023-04-29T17:36:26.989Z,15.77
2023-04-29T17:51:28.888Z,20.77
2023-04-29T18:06:30.541Z,15.30
2023-04-29T18:21:32.605Z,15.60
2023-04-29T18:36:34.310Z,21.70
2023-04-29T18:51:35.933Z,14.17
2023-04-29T19:06:37.761Z,13.40
2023-04-29T19:21:39.802Z,11.90
2023-04-29T19:36:41.646Z,15.30
2023-04-29T19:51:43.678Z,14.03
2023-04-29T20:06:45.531Z,14.97
2023-04-29T20:21:47.219Z,12.13
2023-04-29T20:36:48.841Z,12.67
2023-04-29T20:51:50.938Z,13.47
2023-04-29T21:06:52.776Z,12.13
2023-04-29T21:21:54.395Z,12.30
2023-04-29T21:36:56.285Z,11.23
2023-04-29T21:51:58.100Z,11.23
2023-04-29T22:06:59.801Z,10.63
2023-04-29T22:22:01.585Z,12.97
2023-04-29T22:37:03.268Z,11.77
2023-04-29T22:52:05.181Z,11.47
2023-04-29T23:07:06.789Z,10.73
2023-04-29T23:22:08.523Z,10.30
2023-04-29T23:37:10.241Z,10.80
2023-04-29T23:52:11.918Z,9.93
